createdAt,value
2018-09-27T00:00:34.168Z,0
2018-09-27T00:01:34.942Z,0
2018-09-27T00:02:34.402Z,0
2018-09-27T00:03:34.654Z,0
2018-09-27T00:04:34.643Z,0
2018-09-27T00:05:34.366Z,0
2018-09-27T00:06:34.892Z,0
2018-09-27T00:07:34.330Z,0
2018-09-27T00:08:34.839Z,0
2018-09-27T00:09:34.561Z,0
2018-09-27T00:10:34.544Z,0
2018-09-27T00:11:34.542Z,0
2018-09-27T00:12:34.264Z,0
2018-09-27T00:13:34.502Z,0
2018-09-27T00:14:34.490Z,0
2018-09-27T00:15:34.226Z,0
2018-09-27T00:16:34.193Z,0
2018-09-27T00:17:34.450Z,0
2018-09-27T00:18:34.699Z,0
2018-09-27T00:19:34.904Z,0
2018-09-27T00:20:34.133Z,0
2018-09-27T00:21:34.645Z,0
2018-09-27T00:22:34.369Z,0
2018-09-27T00:23:34.365Z,0
2018-09-27T00:24:34.078Z,0
2018-09-27T00:25:34.062Z,0
2018-09-27T00:26:34.570Z,0
2018-09-27T00:27:34.296Z,0
2018-09-27T00:28:34.280Z,0
2018-09-27T00:29:34.268Z,0
2018-09-27T00:30:33.994Z,0
2018-09-27T00:31:34.242Z,0
2018-09-27T00:32:34.224Z,0
2018-09-27T00:33:33.994Z,0
2018-09-27T00:34:33.922Z,0
2018-09-27T00:35:34.439Z,0
2018-09-27T00:36:34.164Z,0
2018-09-27T00:37:34.148Z,0
2018-09-27T00:38:33.864Z,0
2018-09-27T00:39:33.854Z,0
2018-09-27T00:40:34.109Z,0
2018-09-27T00:41:34.089Z,0
2018-09-27T00:42:34.078Z,0
2018-09-27T00:43:33.792Z,0
2018-09-27T00:44:34.045Z,0
2018-09-27T00:45:34.029Z,0
2018-09-27T00:46:34.293Z,0
2018-09-27T00:47:33.736Z,0
2018-09-27T00:48:33.730Z,0
2018-09-27T00:49:33.972Z,0
2018-09-27T00:50:33.962Z,0
2018-09-27T00:51:33.681Z,0
2018-09-27T00:52:33.931Z,0
2018-09-27T00:53:33.386Z,0
2018-09-27T00:54:33.904Z,0
2018-09-27T00:55:33.623Z,0
2018-09-27T00:57:33.589Z,0
2018-09-27T00:58:34.109Z,0
2018-09-27T00:59:34.087Z,0
2018-09-27T01:00:33.808Z,0
2018-09-27T01:01:33.538Z,0
2018-09-27T01:02:33.779Z,0
2018-09-27T01:03:34.031Z,0
2018-09-27T01:04:33.756Z,0
2018-09-27T01:05:33.747Z,0
2018-09-27T01:06:33.458Z,0
2018-09-27T01:07:33.813Z,0
2018-09-27T01:08:33.432Z,0
2018-09-27T01:09:33.677Z,0
2018-09-27T01:10:33.138Z,0
2018-09-27T01:11:33.389Z,0
2018-09-27T01:12:33.639Z,0
2018-09-27T01:13:33.628Z,0
2018-09-27T01:14:33.347Z,0
2018-09-27T01:15:33.078Z,0
2018-09-27T01:16:33.851Z,0
2018-09-27T01:17:33.572Z,0
2018-09-27T01:18:33.557Z,0
2018-09-27T01:19:33.297Z,0
2018-09-27T01:20:33.268Z,0
2018-09-27T01:21:33.528Z,0
2018-09-27T01:22:33.503Z,0
2018-09-27T01:23:33.217Z,0
2018-09-27T01:24:33.741Z,0
2018-09-27T01:25:33.455Z,0
2018-09-27T01:26:33.454Z,0
2018-09-27T01:27:33.429Z,0
2018-09-27T01:28:33.679Z,0
2018-09-27T01:29:33.400Z,0
2018-09-27T01:30:33.652Z,0
2018-09-27T01:31:33.102Z,0
2018-09-27T01:32:33.354Z,0
2018-09-27T01:33:33.605Z,0
2018-09-27T01:34:33.073Z,0
2018-09-27T01:35:33.054Z,0
2018-09-27T01:36:33.302Z,0
2018-09-27T01:37:33.070Z,0
2018-09-27T01:38:33.538Z,0
2018-09-27T01:39:33.259Z,0
2018-09-27T01:40:33.516Z,0
2018-09-27T01:41:33.492Z,0
2018-09-27T01:42:33.483Z,0
2018-09-27T01:43:32.683Z,0
2018-09-27T01:44:33.187Z,0
2018-09-27T01:45:33.173Z,0
2018-09-27T01:46:33.420Z,0
2018-09-27T01:47:33.409Z,0
2018-09-27T01:48:33.195Z,0
2018-09-27T01:49:33.118Z,0
2018-09-27T01:50:33.119Z,0
2018-09-27T01:51:32.823Z,0
2018-09-27T01:52:33.077Z,0
2018-09-27T01:53:32.797Z,0
2018-09-27T01:54:32.783Z,0
2018-09-27T01:55:33.043Z,0
2018-09-27T01:56:33.276Z,0
2018-09-27T01:57:32.473Z,0
2018-09-27T01:58:33.252Z,0
2018-09-27T01:59:32.975Z,0
2018-09-27T02:00:32.967Z,0
2018-09-27T02:01:33.221Z,0
2018-09-27T02:02:32.940Z,0
2018-09-27T02:03:32.395Z,0
2018-09-27T02:04:32.915Z,0
2018-09-27T02:05:33.150Z,0
2018-09-27T02:06:33.145Z,0
2018-09-27T02:07:32.863Z,0
2018-09-27T02:08:32.592Z,0
2018-09-27T02:09:32.575Z,0
2018-09-27T02:10:32.826Z,0
2018-09-27T02:11:32.808Z,0
2018-09-27T02:12:32.531Z,0
2018-09-27T02:13:32.774Z,0
2018-09-27T02:14:32.235Z,0
2018-09-27T02:15:32.489Z,0
2018-09-27T02:16:32.741Z,0
2018-09-27T02:17:32.464Z,0
2018-09-27T02:18:32.983Z,0
2018-09-27T02:19:32.164Z,0
2018-09-27T02:20:32.682Z,0
2018-09-27T02:21:32.142Z,0
2018-09-27T02:22:32.919Z,0
2018-09-27T02:23:32.637Z,0
2018-09-27T02:24:32.367Z,0
2018-09-27T02:25:32.351Z,0
2018-09-27T02:26:32.610Z,0
2018-09-27T02:27:32.601Z,0
2018-09-27T02:28:32.830Z,0
2018-09-27T02:29:32.027Z,0
2018-09-27T02:30:32.274Z,0
2018-09-27T02:31:32.538Z,0
2018-09-27T02:32:32.261Z,0
2018-09-27T02:33:32.494Z,0
2018-09-27T02:34:32.487Z,0
2018-09-27T02:35:32.219Z,0
2018-09-27T02:36:32.459Z,0
2018-09-27T02:37:32.446Z,0
2018-09-27T02:38:32.171Z,0
2018-09-27T02:39:32.431Z,0
2018-09-27T02:40:32.162Z,0
2018-09-27T02:41:32.390Z,0
2018-09-27T02:42:32.123Z,0
2018-09-27T02:43:31.847Z,0
2018-09-27T02:44:32.091Z,0
2018-09-27T02:45:32.342Z,0
2018-09-27T02:46:31.796Z,0
2018-09-27T02:47:32.047Z,0
2018-09-27T02:48:32.299Z,0
2018-09-27T02:49:32.031Z,0
2018-09-27T02:50:32.262Z,0
2018-09-27T02:51:32.000Z,0
2018-09-27T02:52:31.725Z,0
2018-09-27T02:53:32.497Z,0
2018-09-27T02:54:32.211Z,0
2018-09-27T02:55:31.936Z,0
2018-09-27T02:56:32.188Z,0
2018-09-27T02:57:32.174Z,0
2018-09-27T02:58:32.156Z,0
2018-09-27T02:59:32.143Z,0
2018-09-27T03:00:31.874Z,0
2018-09-27T03:01:32.111Z,0
2018-09-27T03:02:32.094Z,0
2018-09-27T03:03:31.833Z,0
2018-09-27T03:04:32.356Z,0
2018-09-27T03:05:32.058Z,0
2018-09-27T03:06:32.304Z,0
2018-09-27T03:07:32.291Z,0
2018-09-27T03:08:32.015Z,0
2018-09-27T03:09:32.278Z,0
2018-09-27T03:10:31.982Z,0
2018-09-27T03:11:32.253Z,0
2018-09-27T03:12:31.955Z,0
2018-09-27T03:13:32.205Z,0
2018-09-27T03:14:31.408Z,0
2018-09-27T03:15:31.395Z,0
2018-09-27T03:16:31.907Z,0
2018-09-27T03:17:32.146Z,0
2018-09-27T03:18:31.888Z,0
2018-09-27T03:19:31.607Z,0
2018-09-27T03:20:31.324Z,0
2018-09-27T03:21:31.838Z,0
2018-09-27T03:22:32.102Z,0
2018-09-27T03:23:31.535Z,0
2018-09-27T03:24:31.273Z,0
2018-09-27T03:25:31.518Z,0
2018-09-27T03:26:31.505Z,0
2018-09-27T03:27:31.743Z,0
2018-09-27T03:28:31.993Z,0
2018-09-27T03:29:31.719Z,0
2018-09-27T03:30:31.718Z,0
2018-09-27T03:31:31.432Z,0
2018-09-27T03:32:31.417Z,0
2018-09-27T03:33:31.408Z,0
2018-09-27T03:34:31.645Z,0
2018-09-27T03:35:31.624Z,0
2018-09-27T03:36:31.637Z,0
2018-09-27T03:37:46.517Z,0
2018-09-27T03:38:31.857Z,0
2018-09-27T03:39:31.569Z,0
2018-09-27T03:40:31.744Z,0
2018-09-27T03:41:31.821Z,0
2018-09-27T03:42:31.548Z,0
2018-09-27T03:43:31.248Z,0
2018-09-27T03:44:31.508Z,0
2018-09-27T03:45:31.482Z,0
2018-09-27T03:46:31.467Z,0
2018-09-27T03:47:31.183Z,0
2018-09-27T03:48:31.435Z,0
2018-09-27T03:49:31.484Z,0
2018-09-27T03:50:31.684Z,0
2018-09-27T03:51:31.718Z,0
2018-09-27T03:52:31.387Z,0
2018-09-27T03:53:31.102Z,0
2018-09-27T03:54:31.350Z,0
2018-09-27T03:55:31.070Z,0
2018-09-27T03:56:31.073Z,0
2018-09-27T03:57:31.567Z,0
2018-09-27T03:58:31.298Z,0
2018-09-27T03:59:31.298Z,0
2018-09-27T04:00:31.265Z,0
2018-09-27T04:01:31.507Z,0
2018-09-27T04:02:31.494Z,0
2018-09-27T04:03:30.954Z,0
2018-09-27T04:04:31.203Z,0
2018-09-27T04:05:30.919Z,0
2018-09-27T04:06:31.186Z,0
2018-09-27T04:07:31.441Z,0
2018-09-27T04:08:30.874Z,0
2018-09-27T04:09:30.864Z,0
2018-09-27T04:10:31.119Z,0
2018-09-27T04:11:30.843Z,0
2018-09-27T04:12:31.140Z,0
2018-09-27T04:13:31.336Z,0
2018-09-27T04:14:30.794Z,0
2018-09-27T04:15:30.774Z,0
2018-09-27T04:16:31.023Z,0
2018-09-27T04:17:30.751Z,0
2018-09-27T04:18:31.257Z,0
2018-09-27T04:19:30.726Z,0
2018-09-27T04:20:30.965Z,0
2018-09-27T04:21:30.687Z,0
2018-09-27T04:22:30.408Z,0
2018-09-27T04:23:30.923Z,0
2018-09-27T04:24:30.901Z,0
2018-09-27T04:25:30.889Z,0
2018-09-27T04:26:31.140Z,0
2018-09-27T04:27:30.601Z,0
2018-09-27T04:28:30.585Z,0
2018-09-27T04:29:30.826Z,0
2018-09-27T04:30:30.546Z,0
2018-09-27T04:31:31.064Z,0
2018-09-27T04:32:30.785Z,0
2018-09-27T04:33:31.028Z,0
2018-09-27T04:34:30.757Z,0
2018-09-27T04:35:30.476Z,0
2018-09-27T04:36:30.737Z,0
2018-09-27T04:37:30.438Z,0
2018-09-27T04:38:30.752Z,0
2018-09-27T04:39:30.675Z,0
2018-09-27T04:40:30.392Z,0
2018-09-27T04:41:30.384Z,0
2018-09-27T04:42:30.641Z,0
2018-09-27T04:43:30.618Z,0
2018-09-27T04:44:30.655Z,0
2018-09-27T04:45:30.582Z,0
2018-09-27T04:46:30.320Z,0
2018-09-27T04:47:30.290Z,0
2018-09-27T04:48:30.538Z,0
2018-09-27T04:49:30.254Z,0
2018-09-27T04:50:30.500Z,0
2018-09-27T04:51:30.496Z,0
2018-09-27T04:52:30.485Z,0
2018-09-27T04:53:30.462Z,0
2018-09-27T04:54:30.272Z,0
2018-09-27T04:55:30.705Z,4
2018-09-27T04:56:29.884Z,0
2018-09-27T04:57:30.111Z,0
2018-09-27T04:58:30.651Z,4
2018-09-27T04:59:30.107Z,4
2018-09-27T05:00:30.095Z,4
2018-09-27T05:01:30.341Z,4
2018-09-27T05:02:30.320Z,4
2018-09-27T05:03:30.592Z,8
2018-09-27T05:04:30.031Z,8
2018-09-27T05:05:30.533Z,12
2018-09-27T05:06:30.288Z,16
2018-09-27T05:07:29.715Z,16
2018-09-27T05:08:30.234Z,20
2018-09-27T05:09:30.303Z,24
2018-09-27T05:10:30.192Z,28
2018-09-27T05:11:29.650Z,32
2018-09-27T05:12:30.434Z,40
2018-09-27T05:13:29.880Z,44
2018-09-27T05:14:30.132Z,52
2018-09-27T05:15:30.204Z,60
2018-09-27T05:16:30.108Z,64
2018-09-27T05:17:29.820Z,72
2018-09-27T05:18:30.076Z,80
2018-09-27T05:19:29.800Z,96
2018-09-27T05:20:29.855Z,104
2018-09-27T05:21:29.551Z,116
2018-09-27T05:22:29.743Z,128
2018-09-27T05:23:29.996Z,140
2018-09-27T05:24:29.452Z,156
2018-09-27T05:25:29.703Z,172
2018-09-27T05:26:29.942Z,188
2018-09-27T05:27:30.085Z,200
2018-09-27T05:28:30.178Z,216
2018-09-27T05:29:29.899Z,232
2018-09-27T05:30:29.882Z,248
2018-09-27T05:31:30.130Z,264
2018-09-27T05:32:29.582Z,284
2018-09-27T05:33:29.979Z,300
2018-09-27T05:34:29.556Z,320
2018-09-27T05:35:29.809Z,336
2018-09-27T05:36:29.786Z,352
2018-09-27T05:37:29.770Z,372
2018-09-27T05:38:29.489Z,388
2018-09-27T05:39:30.143Z,408
2018-09-27T05:40:29.462Z,428
2018-09-27T05:41:29.447Z,444
2018-09-27T05:42:29.962Z,464
2018-09-27T05:43:29.687Z,484
2018-09-27T05:44:29.663Z,500
2018-09-27T05:45:29.709Z,520
2018-09-27T05:46:29.363Z,540
2018-09-27T05:47:29.623Z,560
2018-09-27T05:48:29.362Z,580
2018-09-27T05:49:29.860Z,596
2018-09-27T05:50:29.322Z,612
2018-09-27T05:51:29.670Z,628
2018-09-27T05:52:29.004Z,644
2018-09-27T05:53:29.537Z,660
2018-09-27T05:54:29.249Z,676
2018-09-27T05:55:29.496Z,692
2018-09-27T05:56:29.739Z,712
2018-09-27T05:57:29.855Z,724
2018-09-27T05:58:29.713Z,740
2018-09-27T05:59:29.699Z,752
2018-09-27T06:00:29.404Z,768
2018-09-27T06:01:29.682Z,784
2018-09-27T06:02:29.377Z,796
2018-09-27T06:03:29.818Z,812
2018-09-27T06:04:29.614Z,824
2018-09-27T06:05:29.331Z,836
2018-09-27T06:06:29.046Z,852
2018-09-27T06:07:29.030Z,860
2018-09-27T06:08:29.287Z,876
2018-09-27T06:09:28.736Z,884
2018-09-27T06:10:29.261Z,900
2018-09-27T06:11:29.599Z,912
2018-09-27T06:12:29.223Z,924
2018-09-27T06:13:29.460Z,936
2018-09-27T06:14:29.189Z,944
2018-09-27T06:15:29.007Z,956
2018-09-27T06:16:29.165Z,968
2018-09-27T06:17:28.882Z,976
2018-09-27T06:18:29.158Z,988
2018-09-27T06:19:29.369Z,996
2018-09-27T06:20:29.107Z,1012
2018-09-27T06:21:29.531Z,1016
2018-09-27T06:22:29.081Z,1028
2018-09-27T06:23:29.060Z,1040
2018-09-27T06:24:28.764Z,1048
2018-09-27T06:25:29.014Z,1060
2018-09-27T06:26:28.738Z,1072
2018-09-27T06:27:29.143Z,1076
2018-09-27T06:28:28.699Z,1088
2018-09-27T06:29:28.951Z,1096
2018-09-27T06:30:29.192Z,1100
2018-09-27T06:31:28.987Z,1112
2018-09-27T06:32:28.903Z,1120
2018-09-27T06:33:28.962Z,1128
2018-09-27T06:34:28.873Z,1136
2018-09-27T06:35:28.593Z,1148
2018-09-27T06:36:29.100Z,1152
2018-09-27T06:37:29.091Z,1160
2018-09-27T06:38:28.845Z,1168
2018-09-27T06:39:28.523Z,1180
2018-09-27T06:40:28.510Z,1184
2018-09-27T06:41:29.215Z,1196
2018-09-27T06:42:28.485Z,1204
2018-09-27T06:43:28.462Z,1208
2018-09-27T06:44:29.137Z,1216
2018-09-27T06:45:28.434Z,1224
2018-09-27T06:46:28.680Z,1232
2018-09-27T06:47:28.933Z,1240
2018-09-27T06:48:29.249Z,1244
2018-09-27T06:49:28.661Z,1256
2018-09-27T06:50:28.732Z,1260
2018-09-27T06:51:28.621Z,1264
2018-09-27T06:52:28.058Z,1272
2018-09-27T06:53:28.315Z,1276
2018-09-27T06:54:28.341Z,1288
2018-09-27T06:55:29.777Z,1292
2018-09-27T06:56:28.649Z,1300
2018-09-27T06:57:28.983Z,1304
2018-09-27T06:58:28.754Z,1312
2018-09-27T06:59:28.213Z,1316
2018-09-27T07:00:28.725Z,1324
2018-09-27T07:01:28.205Z,1328
2018-09-27T07:02:27.936Z,1332
2018-09-27T07:03:27.883Z,1336
2018-09-27T07:04:28.142Z,1340
2018-09-27T07:05:28.400Z,1348
2018-09-27T07:06:28.639Z,1352
2018-09-27T07:07:27.824Z,1356
2018-09-27T07:08:28.478Z,1364
2018-09-27T07:09:28.335Z,1368
2018-09-27T07:10:28.055Z,1372
2018-09-27T07:11:28.353Z,1380
2018-09-27T07:12:29.209Z,1384
2018-09-27T07:13:28.281Z,1388
2018-09-27T07:14:28.064Z,1396
2018-09-27T07:15:28.050Z,1400
2018-09-27T07:16:27.964Z,1408
2018-09-27T07:17:28.202Z,1408
2018-09-27T07:18:27.946Z,1412
2018-09-27T07:19:27.905Z,1416
2018-09-27T07:20:28.874Z,1416
2018-09-27T07:21:28.408Z,1424
2018-09-27T07:22:28.128Z,1428
2018-09-27T07:23:28.115Z,1428
2018-09-27T07:24:28.371Z,1436
2018-09-27T07:25:28.090Z,1440
2018-09-27T07:26:28.206Z,1444
2018-09-27T07:27:28.318Z,1448
2018-09-27T07:28:28.039Z,1452
2018-09-27T07:29:27.756Z,1460
2018-09-27T07:30:28.002Z,1464
2018-09-27T07:31:28.006Z,1468
2018-09-27T07:32:28.104Z,1472
2018-09-27T07:33:28.162Z,1480
2018-09-27T07:34:28.225Z,1484
2018-09-27T07:35:27.928Z,1492
2018-09-27T07:36:27.728Z,1496
2018-09-27T07:37:27.907Z,1500
2018-09-27T07:38:28.020Z,1508
2018-09-27T07:39:27.877Z,1508
2018-09-27T07:40:27.593Z,1516
2018-09-27T07:41:27.606Z,1524
2018-09-27T07:42:28.101Z,1532
2018-09-27T07:43:27.826Z,1532
2018-09-27T07:44:27.602Z,1540
2018-09-27T07:45:28.062Z,1544
2018-09-27T07:46:27.505Z,1548
2018-09-27T07:47:28.024Z,1560
2018-09-27T07:48:27.545Z,1564
2018-09-27T07:49:27.469Z,1568
2018-09-27T07:50:27.829Z,1580
2018-09-27T07:51:27.175Z,1584
2018-09-27T07:52:27.947Z,1596
2018-09-27T07:53:27.672Z,1596
2018-09-27T07:54:27.708Z,1604
2018-09-27T07:55:27.909Z,1612
2018-09-27T07:56:27.713Z,1616
2018-09-27T07:57:27.617Z,1620
2018-09-27T07:58:27.385Z,1628
2018-09-27T07:59:27.333Z,1628
2018-09-27T08:00:27.579Z,1636
2018-09-27T08:01:27.828Z,1648
2018-09-27T08:02:27.368Z,1656
2018-09-27T08:03:27.272Z,1756
2018-09-27T08:04:27.892Z,7916
2018-09-27T08:05:27.514Z,7428
2018-09-27T08:06:27.486Z,6928
2018-09-27T08:07:27.282Z,10664
2018-09-27T08:08:27.566Z,11160
2018-09-27T08:09:27.444Z,8580
2018-09-27T08:10:27.697Z,3952
2018-09-27T08:11:26.975Z,2332
2018-09-27T08:12:26.878Z,2116
2018-09-27T08:13:27.650Z,1720
2018-09-27T08:14:27.552Z,2072
2018-09-27T08:15:27.373Z,2872
2018-09-27T08:16:27.359Z,3904
2018-09-27T08:17:27.655Z,1916
2018-09-27T08:18:27.592Z,1760
2018-09-27T08:19:27.585Z,1960
2018-09-27T08:20:27.875Z,3460
2018-09-27T08:21:27.749Z,5940
2018-09-27T08:22:26.750Z,3320
2018-09-27T08:23:27.265Z,1816
2018-09-27T08:24:27.255Z,1776
2018-09-27T08:25:26.976Z,1784
2018-09-27T08:26:27.057Z,1788
2018-09-27T08:27:27.280Z,1788
2018-09-27T08:28:26.940Z,1788
2018-09-27T08:29:27.454Z,1792
2018-09-27T08:30:27.256Z,1792
2018-09-27T08:31:27.171Z,1796
2018-09-27T08:32:27.250Z,1800
2018-09-27T08:33:26.877Z,1804
2018-09-27T08:34:26.863Z,1808
2018-09-27T08:35:26.849Z,1812
2018-09-27T08:36:27.103Z,1816
2018-09-27T08:37:27.086Z,1820
2018-09-27T08:38:26.948Z,1824
2018-09-27T08:39:27.330Z,1828
2018-09-27T08:40:27.314Z,1836
2018-09-27T08:41:26.769Z,1840
2018-09-27T08:42:27.031Z,1844
2018-09-27T08:43:26.748Z,1852
2018-09-27T08:44:26.910Z,1860
2018-09-27T08:45:27.878Z,2940
2018-09-27T08:46:26.973Z,3272
2018-09-27T08:47:26.956Z,1868
2018-09-27T08:48:26.946Z,1988
2018-09-27T08:49:26.667Z,1868
2018-09-27T08:50:26.652Z,1864
2018-09-27T08:51:27.005Z,1864
2018-09-27T08:52:26.896Z,1872
2018-09-27T08:53:26.890Z,1880
2018-09-27T08:54:26.611Z,1880
2018-09-27T08:55:26.716Z,1880
2018-09-27T08:56:27.439Z,1884
2018-09-27T08:57:27.172Z,1888
2018-09-27T08:58:26.555Z,1896
2018-09-27T08:59:26.545Z,1900
2018-09-27T09:00:26.796Z,1908
2018-09-27T09:01:26.856Z,1912
2018-09-27T09:02:26.501Z,1920
2018-09-27T09:03:27.229Z,1928
2018-09-27T09:04:26.496Z,1932
2018-09-27T09:05:27.006Z,1940
2018-09-27T09:06:26.736Z,1952
2018-09-27T09:07:26.786Z,1956
2018-09-27T09:08:26.721Z,1968
2018-09-27T09:09:26.740Z,1976
2018-09-27T09:10:26.414Z,1972
2018-09-27T09:11:26.928Z,1996
2018-09-27T09:12:26.914Z,1992
2018-09-27T09:13:26.689Z,2000
2018-09-27T09:14:26.359Z,2016
2018-09-27T09:15:26.667Z,2024
2018-09-27T09:16:26.607Z,2028
2018-09-27T09:17:26.166Z,2028
2018-09-27T09:18:26.319Z,2036
2018-09-27T09:19:26.873Z,2040
2018-09-27T09:20:26.811Z,2044
2018-09-27T09:21:26.353Z,2048
2018-09-27T09:22:26.530Z,2052
2018-09-27T09:23:25.977Z,2496
2018-09-27T09:24:26.283Z,2360
2018-09-27T09:25:26.515Z,2088
2018-09-27T09:26:26.487Z,2088
2018-09-27T09:27:26.507Z,2112
2018-09-27T09:28:26.762Z,2132
2018-09-27T09:29:26.343Z,2020
2018-09-27T09:30:26.420Z,2100
2018-09-27T09:31:26.409Z,2108
2018-09-27T09:32:26.402Z,2112
2018-09-27T09:33:26.463Z,2124
2018-09-27T09:34:26.116Z,2120
2018-09-27T09:35:26.719Z,2116
2018-09-27T09:36:26.619Z,2128
2018-09-27T09:37:26.337Z,2128
2018-09-27T09:38:26.054Z,2148
2018-09-27T09:39:26.311Z,2144
2018-09-27T09:40:26.572Z,2156
2018-09-27T09:41:26.292Z,2180
2018-09-27T09:42:26.276Z,2164
2018-09-27T09:43:26.000Z,2160
2018-09-27T09:44:25.993Z,2172
2018-09-27T09:45:26.234Z,2192
2018-09-27T09:46:25.971Z,2184
2018-09-27T09:47:26.213Z,2188
2018-09-27T09:48:26.198Z,2196
2018-09-27T09:49:26.189Z,2188
2018-09-27T09:50:26.173Z,2216
2018-09-27T09:51:26.177Z,2200
2018-09-27T09:52:26.161Z,2192
2018-09-27T09:53:26.146Z,2224
2018-09-27T09:54:25.868Z,2236
2018-09-27T09:55:26.118Z,2240
2018-09-27T09:56:26.126Z,2252
2018-09-27T09:57:26.105Z,2276
2018-09-27T09:58:25.834Z,2276
2018-09-27T09:59:25.810Z,2276
2018-09-27T10:00:26.069Z,2288
2018-09-27T10:01:26.330Z,2324
2018-09-27T10:02:25.943Z,2340
2018-09-27T10:03:25.764Z,2344
2018-09-27T10:04:26.278Z,2352
2018-09-27T10:05:25.744Z,2376
2018-09-27T10:06:26.260Z,2380
2018-09-27T10:07:25.452Z,2420
2018-09-27T10:08:26.228Z,2388
2018-09-27T10:09:25.428Z,2408
2018-09-27T10:10:26.215Z,2464
2018-09-27T10:11:25.669Z,2464
2018-09-27T10:12:26.191Z,2468
2018-09-27T10:13:25.918Z,2480
2018-09-27T10:14:25.639Z,2496
2018-09-27T10:15:25.368Z,2368
2018-09-27T10:16:25.349Z,2472
2018-09-27T10:17:25.608Z,2500
2018-09-27T10:18:25.593Z,2496
2018-09-27T10:19:25.856Z,2496
2018-09-27T10:20:25.567Z,2520
2018-09-27T10:21:25.824Z,2600
2018-09-27T10:22:25.551Z,2848
2018-09-27T10:23:25.539Z,3872
2018-09-27T10:24:25.531Z,2764
2018-09-27T10:25:25.515Z,2536
2018-09-27T10:26:25.773Z,2436
2018-09-27T10:27:26.142Z,2632
2018-09-27T10:28:25.486Z,2776
2018-09-27T10:29:25.466Z,2800
2018-09-27T10:30:25.200Z,3268
2018-09-27T10:31:25.189Z,2924
2018-09-27T10:32:25.169Z,3128
2018-09-27T10:33:25.443Z,2908
2018-09-27T10:34:26.097Z,3076
2018-09-27T10:35:25.136Z,2788
2018-09-27T10:36:25.132Z,2780
2018-09-27T10:37:25.120Z,2760
2018-09-27T10:38:25.368Z,3388
2018-09-27T10:39:25.102Z,2772
2018-09-27T10:40:25.085Z,2828
2018-09-27T10:41:25.873Z,2796
2018-09-27T10:42:25.073Z,2812
2018-09-27T10:43:25.318Z,2824
2018-09-27T10:44:25.319Z,2820
2018-09-27T10:45:25.563Z,2800
2018-09-27T10:46:25.555Z,2908
2018-09-27T10:47:25.547Z,3044
2018-09-27T10:48:25.799Z,2820
2018-09-27T10:49:25.817Z,2908
2018-09-27T10:50:24.991Z,3984
2018-09-27T10:51:25.423Z,2892
2018-09-27T10:52:25.502Z,2888
2018-09-27T10:53:25.480Z,2880
2018-09-27T10:54:25.732Z,2888
2018-09-27T10:55:25.206Z,2916
2018-09-27T10:56:25.454Z,2968
2018-09-27T10:57:25.541Z,4160
2018-09-27T10:58:25.165Z,3024
2018-09-27T10:59:25.684Z,3048
2018-09-27T11:00:25.683Z,3112
2018-09-27T11:01:25.663Z,3072
2018-09-27T11:02:25.120Z,3084
2018-09-27T11:03:25.375Z,2704
2018-09-27T11:04:25.372Z,3200
2018-09-27T11:05:25.470Z,3208
2018-09-27T11:06:25.345Z,3212
2018-09-27T11:07:25.599Z,3236
2018-09-27T11:08:25.317Z,3320
2018-09-27T11:09:25.589Z,3424
2018-09-27T11:10:25.316Z,3500
2018-09-27T11:11:25.101Z,3556
2018-09-27T11:12:24.757Z,3708
2018-09-27T11:13:25.281Z,3768
2018-09-27T11:14:25.270Z,4296
2018-09-27T11:15:25.260Z,4788
2018-09-27T11:16:25.305Z,4488
2018-09-27T11:17:25.262Z,3924
2018-09-27T11:18:25.229Z,4012
2018-09-27T11:19:24.954Z,4140
2018-09-27T11:20:25.476Z,4204
2018-09-27T11:21:25.201Z,4096
2018-09-27T11:22:24.927Z,4440
2018-09-27T11:23:25.494Z,4492
2018-09-27T11:24:24.905Z,4800
2018-09-27T11:25:25.168Z,4876
2018-09-27T11:26:25.411Z,5136
2018-09-27T11:27:25.212Z,6372
2018-09-27T11:28:25.140Z,7548
2018-09-27T11:29:24.999Z,7232
2018-09-27T11:30:24.856Z,7008
2018-09-27T11:31:25.106Z,9224
2018-09-27T11:32:25.098Z,10340
2018-09-27T11:33:25.105Z,11648
2018-09-27T11:34:24.823Z,9532
2018-09-27T11:35:25.078Z,12008
2018-09-27T11:36:25.719Z,12116
2018-09-27T11:37:25.056Z,13372
2018-09-27T11:38:25.173Z,13924
2018-09-27T11:39:25.049Z,16640
2018-09-27T11:40:24.767Z,20288
2018-09-27T11:41:24.497Z,20128
2018-09-27T11:42:25.206Z,15648
2018-09-27T11:43:24.766Z,18848
2018-09-27T11:44:25.275Z,21184
2018-09-27T11:45:24.997Z,29216
2018-09-27T11:46:24.519Z,20160
2018-09-27T11:47:24.983Z,51680
2018-09-27T11:48:24.451Z,57408
2018-09-27T11:49:25.366Z,64288
2018-09-27T11:50:25.249Z,68480
2018-09-27T11:51:24.703Z,72320
2018-09-27T11:52:24.953Z,75872
2018-09-27T11:53:24.684Z,77760
2018-09-27T11:54:24.969Z,77536
2018-09-27T11:55:24.942Z,76928
2018-09-27T11:56:24.939Z,74944
2018-09-27T11:57:24.938Z,72832
2018-09-27T11:58:25.195Z,69824
2018-09-27T11:59:24.660Z,67712
2018-09-27T12:00:24.677Z,64832
2018-09-27T12:01:25.012Z,60288
2018-09-27T12:02:24.944Z,57344
2018-09-27T12:03:24.927Z,57216
2018-09-27T12:04:24.392Z,61536
2018-09-27T12:05:24.663Z,67776
2018-09-27T12:06:24.766Z,72800
2018-09-27T12:07:25.331Z,76288
2018-09-27T12:08:25.192Z,75008
2018-09-27T12:09:24.665Z,67904
2018-09-27T12:10:24.395Z,59552
2018-09-27T12:11:24.671Z,54272
2018-09-27T12:12:24.683Z,52384
2018-09-27T12:13:25.126Z,56256
2018-09-27T12:14:24.967Z,64128
2018-09-27T12:15:24.935Z,73952
2018-09-27T12:16:24.678Z,82400
2018-09-27T12:17:24.706Z,86592
2018-09-27T12:18:24.948Z,88800
2018-09-27T12:19:25.238Z,86944
2018-09-27T12:20:24.714Z,82144
2018-09-27T12:21:24.966Z,74752
2018-09-27T12:22:25.241Z,68608
2018-09-27T12:23:24.709Z,64864
2018-09-27T12:24:24.709Z,63296
2018-09-27T12:25:25.042Z,64160
2018-09-27T12:26:24.984Z,67392
2018-09-27T12:27:24.721Z,67904
2018-09-27T12:28:25.013Z,66336
2018-09-27T12:29:24.726Z,64640
2018-09-27T12:30:25.009Z,63264
2018-09-27T12:31:25.264Z,64064
2018-09-27T12:32:24.755Z,64800
2018-09-27T12:33:24.752Z,62848
2018-09-27T12:34:24.761Z,61856
2018-09-27T12:35:25.283Z,63104
2018-09-27T12:36:25.366Z,64672
2018-09-27T12:37:24.769Z,65856
2018-09-27T12:38:25.605Z,67072
2018-09-27T12:39:25.114Z,68384
2018-09-27T12:40:25.111Z,69056
2018-09-27T12:41:25.047Z,70464
2018-09-27T12:42:25.748Z,70880
2018-09-27T12:43:25.326Z,68064
2018-09-27T12:44:25.333Z,64704
2018-09-27T12:45:24.892Z,63424
2018-09-27T12:46:25.492Z,65280
2018-09-27T12:47:24.558Z,68608
2018-09-27T12:48:25.257Z,72128
2018-09-27T12:49:24.830Z,73088
2018-09-27T12:50:24.896Z,71104
2018-09-27T12:51:25.342Z,67040
2018-09-27T12:52:25.425Z,63840
2018-09-27T12:53:24.989Z,59456
2018-09-27T12:54:25.115Z,56576
2018-09-27T12:55:25.123Z,57216
2018-09-27T12:56:24.863Z,59424
2018-09-27T12:57:25.337Z,63232
2018-09-27T12:58:24.946Z,66944
2018-09-27T12:59:25.432Z,66656
2018-09-27T13:00:24.908Z,64480
2018-09-27T13:01:25.200Z,61088
2018-09-27T13:02:25.669Z,58240
2018-09-27T13:03:25.195Z,57536
2018-09-27T13:04:25.174Z,58048
2018-09-27T13:05:25.182Z,60128
2018-09-27T13:06:24.653Z,61280
2018-09-27T13:07:24.933Z,62496
2018-09-27T13:08:24.693Z,61888
2018-09-27T13:09:25.638Z,59840
2018-09-27T13:10:24.682Z,56896
2018-09-27T13:11:24.947Z,55136
2018-09-27T13:12:25.086Z,55040
2018-09-27T13:13:25.334Z,56448
2018-09-27T13:14:25.260Z,57056
2018-09-27T13:15:24.968Z,57376
2018-09-27T13:16:25.233Z,54496
2018-09-27T13:17:25.812Z,52224
2018-09-27T13:18:25.245Z,52544
2018-09-27T13:19:25.456Z,54144
2018-09-27T13:20:25.887Z,56512
2018-09-27T13:21:25.061Z,56832
2018-09-27T13:22:25.266Z,55968
2018-09-27T13:23:25.282Z,55360
2018-09-27T13:24:25.057Z,53536
2018-09-27T13:25:25.050Z,52320
2018-09-27T13:26:25.600Z,53408
2018-09-27T13:27:25.352Z,55584
2018-09-27T13:28:25.350Z,57536
2018-09-27T13:29:25.033Z,58496
2018-09-27T13:30:25.122Z,56736
2018-09-27T13:31:25.360Z,52160
2018-09-27T13:32:25.591Z,47104
2018-09-27T13:33:25.054Z,44480
2018-09-27T13:34:25.338Z,43776
2018-09-27T13:35:25.591Z,43072
2018-09-27T13:36:25.331Z,42944
2018-09-27T13:37:25.077Z,43264
2018-09-27T13:38:25.082Z,44640
2018-09-27T13:39:25.378Z,46784
2018-09-27T13:40:25.357Z,50208
2018-09-27T13:41:25.358Z,51808
2018-09-27T13:42:25.112Z,50592
2018-09-27T13:43:25.104Z,47872
2018-09-27T13:44:25.122Z,43040
2018-09-27T13:45:25.391Z,38080
2018-09-27T13:46:25.601Z,34784
2018-09-27T13:47:25.400Z,33536
2018-09-27T13:48:25.658Z,33120